• Join FlightAware (Why Join?)
  • Login
  • US Flag 
12:36PM EDT


 

Airport Tracker/Info


-or-


 

Live Flight TrackerFlight Track Log ✈ UAL4583 ✈ 01-Jan-2014 ✈ KEWR - KPWM

Flight Track Log - Related Links

Times and Time Zones

All times are in EST time to prevent confusion due to time zone crossing. See the UAL4583 flight status page for this flight to view local times or setup timezone preferences in your user account.

Time Position Orientation Groundspeed Altitude Reporting Facility
EST Latitude Longitude Course Direction KTS MPH feet Rate Location/Type
05:35PM 40.7167 -74.1500 30° Northeast 175 201 1,700  Level New York TRACON
05:37PM 40.7833 -74.1000 30° Northeast 247 284 3,500 1,980 Climbing New York TRACON
05:38PM 40.8333 -74.0333 45° Northeast 285 328 5,900 2,100 Climbing New York TRACON
05:40PM 40.9450 -73.8122 56° Northeast 327 376 10,800 1,680 Climbing Boston Center
05:41PM 41.0292 -73.7369 34° Northeast 346 398 11,900 1,020 Climbing Boston Center
05:42PM 41.1153 -73.6569 35° Northeast 376 433 13,000 1,020 Climbing Boston Center
05:43PM 41.2047 -73.5739 35° Northeast 391 450 14,000 1,080 Climbing Boston Center
05:44PM 41.3039 -73.4811 35° Northeast 404 465 15,300 1,200 Climbing Boston Center
05:45PM 41.3961 -73.3939 35° Northeast 408 470 16,600 1,200 Climbing Boston Center
05:46PM 41.4925 -73.2997 36° Northeast 419 482 17,800 840 Climbing Boston Center
05:47PM 41.5772 -73.1875 45° Northeast 430 495 18,400 720 Climbing Boston Center
05:48PM 41.6631 -73.1228 29° Northeast 410 472 19,300 900 Climbing Boston Center
05:49PM 41.7678 -73.1300 357° North 380 437 20,300 780 Climbing Boston Center
05:50PM 41.8719 -73.1475 353° North 377 434 21,000 300 Climbing Boston Center
05:51PM 42.0044 -73.1708 353° North 399 459 21,000  Level Boston Center
05:52PM 42.1142 -73.1892 353° North 399 459 21,000  Level Boston Center
05:53PM 42.2267 -73.1517 14° North 435 501 21,000  Level Boston Center
05:54PM 42.3153 -73.0256 46° Northeast 470 541 21,000  Level Boston Center
05:55PM 42.4022 -72.8869 50° Northeast 472 543 21,000  Level Boston Center
05:56PM 42.4872 -72.7542 49° Northeast 468 539 21,000  Level Boston Center
05:57PM 42.5731 -72.6139 50° Northeast 479 551 21,000  Level Boston Center
05:58PM 42.6519 -72.4858 50° Northeast 479 551 21,000  Level Boston Center
05:59PM 42.7547 -72.3197 50° Northeast 479 551 21,000  Level Boston Center
06:00PM 42.8364 -72.1856 50° Northeast 480 552 21,000  Level Boston Center
06:01PM 42.9206 -72.0461 50° Northeast 479 551 21,000  Level Boston Center
06:02PM 43.0053 -71.9069 50° Northeast 478 550 21,000  Level Boston Center
06:03PM 43.0903 -71.7656 51° Northeast 482 555 21,000 -780 Level Boston Center
06:04PM 43.1753 -71.6261 50° Northeast 480 552 19,500 -2,040 Descending Boston Center
06:05PM 43.2675 -71.4703 51° Northeast 468 539 16,900 -2,820 Descending Boston Center
06:06PM 43.3444 -71.3408 51° Northeast 442 509 13,800 -2,760 Descending Boston Center
06:07PM 43.4217 -71.2103 51° Northeast 414 476 11,300 -1,440 Descending Boston Center
06:09PM 43.4792 -71.0864 57° Northeast 392 451 11,000 -180 Descending Boston Center
06:10PM 43.5175 -70.9403 70° East 406 467 11,000 -420 Level Boston Center
06:11PM 43.5369 -70.8047 79° East 357 411 10,200 -1,200 Descending Boston Center
06:12PM 43.5306 -70.6717 94° East 331 381 8,600 -1,500 Descending Boston Center
06:13PM 43.5244 -70.5522 94° East 316 364 7,200 -1,380 Descending Boston Center
06:14PM 43.5186 -70.4411 94° East 295 339 5,900 -1,260 Descending Boston Center
06:15PM 43.5247 -70.3397 85° East 248 285 4,600 -1,260 Descending Boston Center
06:16PM 43.5397 -70.2517 77° East 239 275 3,300 -1,200 Descending Boston Center
06:17PM 43.5844 -70.2242 24° Northeast 191 220 2,200 -1,080 Descending Boston Center
06:18PM 43.6247 -70.2414 343° North 148 170 1,200 -840 Descending Boston Center
06:19PM 43.6444 -70.2761 308° West 119 137 500 -540 Descending Boston Center
06:20PM 43.6456 -70.3211 272° West 119 137 100 -420 Descending Boston Center
06:22PM 43.6456 -70.3086 340° North  Level Estimated